Time;durP1;ratioP1;P1;durP2;ratioP2;P2;SDS_P1;SDS_P2;PMS_P1;PMS_P2;Temp;Humidity;BMP_temperature;BMP_pressure;BME280_temperature;BME280_humidity;BME280_pressure;Samples;Min_cycle;Max_cycle;Signal;HPM_P1;HPM_P2
2021/07/08 00:01:30;;;;;;;16.67;5.63;;;16.30;99.90;;;;;;5014182;28;20030;-89
2021/07/08 00:03:55;;;;;;;15.73;5.50;;;16.40;99.90;;;;;;5014096;28;20065;-89
2021/07/08 00:06:21;;;;;;;19.63;5.97;;;16.30;99.90;;;;;;5013943;28;20026;-89
2021/07/08 00:08:47;;;;;;;16.15;6.30;;;16.30;99.90;;;;;;5013838;28;20045;-89
2021/07/08 00:11:13;;;;;;;17.17;5.95;;;16.30;99.90;;;;;;5013904;28;20171;-90
2021/07/08 00:13:39;;;;;;;17.10;6.55;;;16.20;99.90;;;;;;5013559;28;20033;-90
2021/07/08 00:16:05;;;;;;;11.18;6.03;;;16.30;99.90;;;;;;5035136;28;20021;-89
2021/07/08 00:18:31;;;;;;;16.33;6.45;;;16.20;99.90;;;;;;5053734;28;20051;-89
2021/07/08 00:20:58;;;;;;;18.38;5.68;;;16.20;99.90;;;;;;5053427;28;20025;-89
2021/07/08 00:23:24;;;;;;;15.07;5.80;;;16.20;99.90;;;;;;5035568;28;20021;-89
2021/07/08 00:25:51;;;;;;;15.23;5.55;;;16.20;99.90;;;;;;5053337;28;20491;-89
2021/07/08 00:28:17;;;;;;;16.75;6.43;;;16.20;99.90;;;;;;5053396;28;20039;-90
2021/07/08 00:30:45;;;;;;;20.65;6.45;;;16.20;99.90;;;;;;5053437;28;20049;-90
2021/07/08 00:33:11;;;;;;;17.80;5.93;;;16.20;99.90;;;;;;5034905;28;20029;-90
2021/07/08 00:35:39;;;;;;;17.55;6.50;;;16.20;99.90;;;;;;5035493;28;20488;-90
2021/07/08 00:38:05;;;;;;;16.80;6.78;;;16.20;99.90;;;;;;5033538;28;20025;-90
2021/07/08 00:40:32;;;;;;;12.75;6.25;;;16.20;99.90;;;;;;5033146;28;20018;-89
2021/07/08 00:42:58;;;;;;;11.70;5.70;;;16.10;99.90;;;;;;5033373;28;20042;-89
2021/07/08 00:45:25;;;;;;;19.73;7.57;;;16.10;99.90;;;;;;5020449;28;20369;-90
2021/07/08 00:47:52;;;;;;;18.55;6.07;;;16.10;99.90;;;;;;5052741;28;20053;-90
2021/07/08 00:50:26;;;;;;;13.98;5.75;;;16.10;99.90;;;;;;5052595;28;20052;-89
2021/07/08 00:52:52;;;;;;;12.63;5.82;;;16.10;99.90;;;;;;5034927;28;20504;-89
2021/07/08 00:55:17;;;;;;;12.45;6.13;;;16.00;99.90;;;;;;5035170;28;20438;-89
2021/07/08 00:57:53;;;;;;;16.48;6.20;;;16.00;99.90;;;;;;5052742;28;20033;-89
2021/07/08 01:00:20;;;;;;;17.75;6.20;;;16.00;99.90;;;;;;5052669;28;20029;-89
2021/07/08 01:02:48;;;;;;;12.05;5.88;;;16.00;99.90;;;;;;5035102;28;20035;-89
2021/07/08 01:05:16;;;;;;;16.38;6.68;;;15.90;99.90;;;;;;5052588;28;20376;-89
2021/07/08 01:07:44;;;;;;;17.50;6.85;;;15.80;99.90;;;;;;5052929;28;20439;-90
2021/07/08 01:10:10;;;;;;;17.13;6.28;;;15.70;99.90;;;;;;5052685;28;20029;-89
2021/07/08 01:12:36;;;;;;;11.27;5.88;;;15.70;99.90;;;;;;5034270;28;20407;-89
2021/07/08 01:15:02;;;;;;;14.35;6.35;;;15.80;99.90;;;;;;5052704;28;20026;-89
2021/07/08 01:17:27;;;;;;;16.70;5.63;;;15.80;99.90;;;;;;5052852;28;20021;-90
2021/07/08 01:19:53;;;;;;;15.75;6.35;;;15.90;99.90;;;;;;5052469;28;20476;-90
2021/07/08 01:22:19;;;;;;;12.65;6.50;;;15.90;99.90;;;;;;5034482;28;20037;-89
2021/07/08 01:24:44;;;;;;;17.05;6.25;;;15.90;99.90;;;;;;5034639;28;20480;-89
2021/07/08 01:27:13;;;;;;;13.60;6.35;;;15.90;99.90;;;;;;5055648;28;20488;-89
2021/07/08 01:29:39;;;;;;;16.42;6.43;;;15.90;99.90;;;;;;5056287;28;20032;-90
2021/07/08 01:32:06;;;;;;;16.40;6.95;;;15.80;99.90;;;;;;5038109;28;20502;-87
2021/07/08 01:34:32;;;;;;;16.35;5.80;;;15.70;99.90;;;;;;5056356;28;20013;-89
2021/07/08 01:36:57;;;;;;;11.18;5.63;;;15.70;99.90;;;;;;5024617;28;20022;-89
2021/07/08 01:39:23;;;;;;;10.77;5.63;;;15.70;99.90;;;;;;4999067;28;20508;-89
2021/07/08 01:41:49;;;;;;;11.60;5.28;;;15.70;99.90;;;;;;5016663;28;20038;-89
2021/07/08 01:44:14;;;;;;;12.02;5.63;;;15.70;99.90;;;;;;5016386;28;20045;-90
2021/07/08 01:46:41;;;;;;;12.38;5.00;;;15.70;99.90;;;;;;5047482;28;20035;-90
2021/07/08 01:49:06;;;;;;;12.80;6.25;;;15.70;99.90;;;;;;5038478;28;20115;-89
2021/07/08 01:51:34;;;;;;;11.07;5.32;;;15.80;99.90;;;;;;5056170;28;20104;-89
2021/07/08 01:54:02;;;;;;;24.50;6.20;;;15.80;99.90;;;;;;5056510;28;20368;-89
2021/07/08 01:56:28;;;;;;;12.63;5.82;;;15.70;99.90;;;;;;5038299;28;20040;-90
2021/07/08 01:58:54;;;;;;;11.60;5.47;;;15.80;99.90;;;;;;5038174;28;20021;-90
2021/07/08 02:01:21;;;;;;;14.73;5.70;;;15.80;99.90;;;;;;5056070;28;20037;-90
2021/07/08 02:03:46;;;;;;;12.75;5.93;;;15.70;99.90;;;;;;5056263;28;20017;-90
2021/07/08 02:06:12;;;;;;;14.02;4.70;;;15.60;99.90;;;;;;5038199;28;20032;-89
2021/07/08 02:08:38;;;;;;;17.77;5.55;;;15.70;99.90;;;;;;5037952;28;20033;-89
2021/07/08 02:11:06;;;;;;;15.05;5.35;;;15.70;99.90;;;;;;5038043;28;20393;-89
2021/07/08 02:13:33;;;;;;;13.23;5.80;;;15.70;99.90;;;;;;5056111;28;20017;-89
2021/07/08 02:16:04;;;;;;;9.32;4.65;;;15.70;99.90;;;;;;5027872;28;20029;-89
2021/07/08 02:18:30;;;;;;;15.60;5.93;;;15.70;99.90;;;;;;5035575;28;20013;-90
2021/07/08 02:20:56;;;;;;;13.77;5.60;;;15.70;99.90;;;;;;5035784;28;20075;-89
2021/07/08 02:23:22;;;;;;;11.68;5.35;;;15.70;99.90;;;;;;5017855;28;20029;-89
2021/07/08 02:25:47;;;;;;;15.20;6.18;;;15.60;99.90;;;;;;5018277;28;20520;-90
2021/07/08 02:28:13;;;;;;;11.25;5.38;;;15.60;99.90;;;;;;5035462;28;20105;-90
2021/07/08 02:30:39;;;;;;;9.52;5.20;;;15.60;99.90;;;;;;5035645;28;20112;-90
2021/07/08 02:33:04;;;;;;;10.38;5.22;;;15.60;99.90;;;;;;5035534;28;20033;-90
2021/07/08 02:35:30;;;;;;;13.48;5.22;;;15.60;99.90;;;;;;5017672;28;20079;-89
2021/07/08 02:37:56;;;;;;;11.07;4.78;;;15.60;99.90;;;;;;5017533;28;20076;-89
2021/07/08 02:40:26;;;;;;;17.10;6.07;;;15.60;99.90;;;;;;5034665;28;20378;-89
2021/07/08 02:42:52;;;;;;;12.23;4.75;;;15.60;99.90;;;;;;5035276;28;20031;-89
2021/07/08 02:45:22;;;;;;;12.13;5.13;;;15.60;99.90;;;;;;5046214;28;20108;-89
2021/07/08 02:47:49;;;;;;;11.45;4.82;;;15.60;99.90;;;;;;5017550;28;20032;-89
2021/07/08 02:50:15;;;;;;;10.52;4.72;;;15.70;99.90;;;;;;5017349;28;20026;-89
2021/07/08 02:52:42;;;;;;;15.05;4.68;;;15.70;99.90;;;;;;5035152;28;20030;-88
2021/07/08 02:55:08;;;;;;;10.82;4.70;;;15.70;99.90;;;;;;5035042;28;20022;-89
2021/07/08 02:57:34;;;;;;;9.82;4.82;;;15.60;99.90;;;;;;5035111;28;20113;-90
2021/07/08 03:00:00;;;;;;;8.55;4.70;;;15.70;99.90;;;;;;5016917;28;20112;-89
2021/07/08 03:02:26;;;;;;;7.53;4.50;;;15.70;99.90;;;;;;5017340;28;20022;-89
2021/07/08 03:04:51;;;;;;;9.30;4.82;;;15.70;99.90;;;;;;5017484;28;20487;-88
2021/07/08 03:07:17;;;;;;;13.50;5.18;;;15.80;99.90;;;;;;5034835;28;20029;-90
2021/07/08 03:09:43;;;;;;;11.57;4.57;;;15.80;99.90;;;;;;5034832;28;20037;-90
2021/07/08 03:12:09;;;;;;;10.93;4.88;;;15.80;99.90;;;;;;5034786;28;20507;-89
2021/07/08 03:14:35;;;;;;;9.77;4.57;;;15.80;99.90;;;;;;5016656;28;20029;-89
2021/07/08 03:17:02;;;;;;;12.98;4.97;;;15.70;99.90;;;;;;5034238;28;20034;-89
2021/07/08 03:19:27;;;;;;;12.02;4.63;;;15.70;99.90;;;;;;5034533;28;20040;-90
2021/07/08 03:21:53;;;;;;;8.05;4.53;;;15.70;99.90;;;;;;5016821;28;20029;-90
2021/07/08 03:24:19;;;;;;;14.82;5.53;;;15.70;99.90;;;;;;5017093;28;20029;-90
2021/07/08 03:26:44;;;;;;;9.80;5.38;;;15.60;99.90;;;;;;5034761;28;20400;-89
2021/07/08 03:29:10;;;;;;;6.88;5.07;;;15.50;99.90;;;;;;5034507;28;20069;-87
2021/07/08 03:31:35;;;;;;;14.45;4.85;;;15.40;99.90;;;;;;5016655;28;20025;-89
2021/07/08 03:34:01;;;;;;;11.43;5.68;;;15.30;99.90;;;;;;5016467;28;20523;-89
2021/07/08 03:36:27;;;;;;;14.02;5.97;;;15.20;99.90;;;;;;5016619;28;20495;-89
2021/07/08 03:38:53;;;;;;;9.30;5.00;;;15.20;99.90;;;;;;5016587;28;20032;-89
2021/07/08 03:41:19;;;;;;;13.32;5.93;;;15.30;99.90;;;;;;5033637;28;20022;-89
2021/07/08 03:43:46;;;;;;;12.75;5.32;;;15.30;99.90;;;;;;5034140;28;20068;-89
2021/07/08 03:46:12;;;;;;;9.85;5.25;;;15.40;99.90;;;;;;5022365;28;20025;-89
2021/07/08 03:48:38;;;;;;;14.32;6.30;;;15.50;99.90;;;;;;4995510;28;20033;-88
2021/07/08 03:51:03;;;;;;;16.50;6.47;;;15.50;99.90;;;;;;4995947;28;20029;-87
2021/07/08 03:53:29;;;;;;;12.15;6.20;;;15.40;99.90;;;;;;5013841;28;20022;-87
2021/07/08 03:55:55;;;;;;;12.43;7.00;;;15.30;99.90;;;;;;5014092;28;20026;-87
2021/07/08 03:58:20;;;;;;;15.57;6.75;;;15.20;99.90;;;;;;5013430;28;20030;-87
2021/07/08 04:00:46;;;;;;;11.18;6.15;;;15.20;99.90;;;;;;4994876;28;20026;-87
2021/07/08 04:03:15;;;;;;;16.75;6.72;;;15.10;99.90;;;;;;5013417;28;20022;-87
2021/07/08 04:05:42;;;;;;;12.40;6.18;;;15.10;99.90;;;;;;5013835;28;20033;-87
2021/07/08 04:08:09;;;;;;;10.73;6.28;;;15.10;99.90;;;;;;5013349;28;20029;-87
2021/07/08 04:10:37;;;;;;;12.55;6.18;;;15.00;99.90;;;;;;5013159;28;20079;-87
2021/07/08 04:13:05;;;;;;;12.32;5.75;;;15.00;99.90;;;;;;5012151;28;20029;-87
2021/07/08 04:15:31;;;;;;;11.43;6.65;;;15.00;99.90;;;;;;5024017;28;20100;-87
2021/07/08 04:17:57;;;;;;;10.48;6.57;;;14.90;99.90;;;;;;5035539;28;20025;-86
2021/07/08 04:20:23;;;;;;;10.75;6.50;;;14.90;99.90;;;;;;5052341;28;20502;-87
2021/07/08 04:22:50;;;;;;;10.07;6.18;;;14.90;99.90;;;;;;5034732;28;20110;-87
2021/07/08 04:25:16;;;;;;;14.23;7.00;;;14.80;99.90;;;;;;5052677;28;20025;-87
2021/07/08 04:27:43;;;;;;;13.32;6.40;;;14.80;99.90;;;;;;5052299;28;20078;-87
2021/07/08 04:30:11;;;;;;;13.48;7.25;;;14.90;99.90;;;;;;5052490;28;20060;-86
2021/07/08 04:32:37;;;;;;;15.02;6.93;;;14.90;99.90;;;;;;5053164;28;20066;-87
2021/07/08 04:35:04;;;;;;;15.23;6.40;;;14.90;99.90;;;;;;5051908;28;20039;-86
2021/07/08 04:37:30;;;;;;;10.18;6.20;;;14.90;99.90;;;;;;5034408;28;20049;-87
2021/07/08 04:39:56;;;;;;;15.32;6.05;;;14.70;99.90;;;;;;5052733;28;20032;-87
2021/07/08 04:42:22;;;;;;;20.08;6.45;;;14.70;99.90;;;;;;5052734;28;20033;-87
2021/07/08 04:44:47;;;;;;;13.85;7.30;;;14.80;99.90;;;;;;5024606;28;20385;-87
2021/07/08 04:47:14;;;;;;;12.40;7.13;;;14.80;99.90;;;;;;5033088;28;20447;-87
2021/07/08 04:49:40;;;;;;;18.88;6.97;;;14.80;99.90;;;;;;5032042;28;20057;-87
2021/07/08 04:52:07;;;;;;;11.27;6.50;;;14.80;99.90;;;;;;5032028;28;20061;-87
2021/07/08 04:54:33;;;;;;;9.38;6.28;;;14.80;99.90;;;;;;5015293;28;20522;-88
2021/07/08 04:56:58;;;;;;;16.48;7.07;;;14.80;99.90;;;;;;5033077;28;20392;-88
2021/07/08 04:59:24;;;;;;;18.80;7.07;;;14.80;99.90;;;;;;5032864;28;20022;-87
2021/07/08 05:01:50;;;;;;;12.35;6.20;;;14.80;99.90;;;;;;5032841;28;20022;-86
2021/07/08 05:04:15;;;;;;;13.30;6.13;;;14.80;99.90;;;;;;5032024;28;20033;-87
2021/07/08 05:06:41;;;;;;;10.70;5.90;;;14.80;99.90;;;;;;5032053;28;20032;-87
2021/07/08 05:09:06;;;;;;;11.80;6.45;;;14.80;99.90;;;;;;5014775;28;20037;-87
2021/07/08 05:11:32;;;;;;;12.13;5.50;;;14.90;99.90;;;;;;5014646;28;20036;-87
2021/07/08 05:13:58;;;;;;;8.85;6.30;;;14.80;99.90;;;;;;5032801;28;20105;-87
2021/07/08 05:16:23;;;;;;;16.05;6.22;;;14.80;99.90;;;;;;5024213;28;20115;-87
2021/07/08 05:18:49;;;;;;;8.73;5.65;;;14.80;99.90;;;;;;5012385;28;20030;-86
2021/07/08 05:21:15;;;;;;;11.30;6.03;;;14.80;99.90;;;;;;5012736;28;20054;-86
2021/07/08 05:23:41;;;;;;;12.70;7.28;;;14.80;99.90;;;;;;4994838;28;20061;-86
2021/07/08 05:26:07;;;;;;;11.75;7.15;;;14.80;99.90;;;;;;4995261;28;20060;-86
2021/07/08 05:28:34;;;;;;;13.80;7.20;;;14.70;99.90;;;;;;5012966;28;20053;-86
2021/07/08 05:31:00;;;;;;;17.05;7.07;;;14.80;99.90;;;;;;5012810;28;20034;-86
2021/07/08 05:33:26;;;;;;;18.58;7.10;;;14.80;99.90;;;;;;5012387;28;20022;-86
2021/07/08 05:35:51;;;;;;;14.90;6.97;;;14.80;99.90;;;;;;5032178;28;20030;-86
2021/07/08 05:38:17;;;;;;;13.07;5.75;;;14.80;99.90;;;;;;5042013;28;20040;-87
2021/07/08 05:40:43;;;;;;;11.68;6.78;;;14.80;99.90;;;;;;5031831;28;20025;-85
2021/07/08 05:43:08;;;;;;;10.18;6.63;;;14.80;99.90;;;;;;5030942;28;20052;-85
2021/07/08 05:45:34;;;;;;;13.82;6.97;;;14.80;99.90;;;;;;5033349;28;20026;-85
2021/07/08 05:48:00;;;;;;;13.52;7.18;;;14.90;99.90;;;;;;5033972;28;20031;-85
2021/07/08 05:50:26;;;;;;;11.25;6.30;;;15.00;99.90;;;;;;5052274;28;20111;-85
2021/07/08 05:52:52;;;;;;;12.60;6.38;;;15.10;99.90;;;;;;5052112;28;20041;-85
2021/07/08 05:55:18;;;;;;;9.63;6.30;;;15.20;99.90;;;;;;5020115;28;20032;-85
2021/07/08 05:57:47;;;;;;;12.93;7.57;;;15.30;99.90;;;;;;5031834;28;20030;-85
2021/07/08 06:00:14;;;;;;;15.13;6.00;;;15.40;99.90;;;;;;5030533;28;20494;-85
2021/07/08 06:02:40;;;;;;;9.38;6.03;;;15.50;99.90;;;;;;5028669;28;20172;-85
2021/07/08 06:05:06;;;;;;;10.30;5.47;;;15.70;99.90;;;;;;5031493;28;20105;-85
2021/07/08 06:07:32;;;;;;;7.07;4.82;;;15.80;99.90;;;;;;5028115;28;20476;-85
2021/07/08 06:09:58;;;;;;;8.00;4.40;;;16.10;99.90;;;;;;5004128;28;20034;-85
2021/07/08 06:12:23;;;;;;;4.13;3.72;;;16.20;99.90;;;;;;5034484;28;20074;-85
2021/07/08 06:14:50;;;;;;;6.63;3.88;;;16.30;99.90;;;;;;5034376;28;20392;-85
2021/07/08 06:17:15;;;;;;;10.77;4.40;;;16.40;99.90;;;;;;5033743;28;20040;-85
2021/07/08 06:19:41;;;;;;;10.68;4.00;;;16.50;99.90;;;;;;5032256;28;20033;-85
2021/07/08 06:22:07;;;;;;;7.85;3.85;;;16.60;99.90;;;;;;5032780;28;20030;-85
2021/07/08 06:24:32;;;;;;;10.85;4.25;;;16.70;99.90;;;;;;5030011;28;20030;-84
2021/07/08 06:26:58;;;;;;;7.18;2.97;;;16.80;99.90;;;;;;5031596;28;20282;-86
2021/07/08 06:29:23;;;;;;;6.75;2.88;;;16.80;99.90;;;;;;5023718;28;20399;-85
2021/07/08 06:31:49;;;;;;;8.52;3.50;;;16.90;99.90;;;;;;5028909;28;20029;-85
2021/07/08 06:34:15;;;;;;;8.07;3.35;;;16.80;99.90;;;;;;5024082;28;20017;-85
2021/07/08 06:36:41;;;;;;;6.93;3.35;;;16.90;99.90;;;;;;5031019;28;20029;-85
2021/07/08 06:39:06;;;;;;;9.30;3.47;;;16.80;99.90;;;;;;5030077;28;20025;-85
2021/07/08 06:41:32;;;;;;;6.68;3.22;;;16.80;99.90;;;;;;5033152;28;20037;-85
2021/07/08 06:43:58;;;;;;;8.52;3.28;;;16.90;99.90;;;;;;5008510;28;20416;-85
2021/07/08 06:46:28;;;;;;;6.68;3.50;;;17.10;99.90;;;;;;5007395;28;20034;-81
2021/07/08 06:48:54;;;;;;;5.53;3.00;;;17.30;99.90;;;;;;5012727;28;20049;-81
2021/07/08 06:51:20;;;;;;;11.23;4.30;;;17.50;99.90;;;;;;5012786;28;20050;-82
2021/07/08 06:53:46;;;;;;;11.80;2.95;;;17.70;99.90;;;;;;5009203;28;20527;-83
2021/07/08 06:56:12;;;;;;;7.10;2.83;;;17.80;99.90;;;;;;5012387;28;20033;-82
2021/07/08 06:58:37;;;;;;;7.30;2.75;;;17.90;99.90;;;;;;5012499;28;20099;-80
2021/07/08 07:01:03;;;;;;;8.85;3.28;;;18.00;99.90;;;;;;5009731;28;20091;-82
2021/07/08 07:03:34;;;;;;;7.18;3.00;;;18.00;99.90;;;;;;5012533;28;20069;-82
2021/07/08 07:06:00;;;;;;;6.90;2.55;;;17.90;99.90;;;;;;5005341;28;20042;-81
2021/07/08 07:08:25;;;;;;;9.55;2.50;;;17.80;99.90;;;;;;5008756;28;20081;-81
2021/07/08 07:10:51;;;;;;;9.13;2.65;;;17.70;99.90;;;;;;5008248;28;20036;-81
2021/07/08 07:13:17;;;;;;;7.38;2.97;;;17.80;99.90;;;;;;5008885;28;20033;-82
2021/07/08 07:15:42;;;;;;;6.20;2.47;;;17.80;99.90;;;;;;5010450;28;20030;-81
2021/07/08 07:18:08;;;;;;;6.88;2.78;;;17.80;99.90;;;;;;5014018;28;20589;-81
2021/07/08 07:20:34;;;;;;;5.68;2.60;;;18.00;99.90;;;;;;5004147;28;20092;-82
2021/07/08 07:23:00;;;;;;;10.25;3.25;;;18.10;99.90;;;;;;5009308;28;20038;-82
2021/07/08 07:25:27;;;;;;;7.88;2.80;;;18.10;99.90;;;;;;5010816;28;20374;-83
2021/07/08 07:27:54;;;;;;;7.15;2.70;;;17.90;99.90;;;;;;5009283;28;20113;-82
2021/07/08 07:30:23;;;;;;;9.57;2.78;;;17.70;99.90;;;;;;5010926;28;20048;-81
2021/07/08 07:32:50;;;;;;;8.07;3.10;;;17.70;99.90;;;;;;5001758;28;20041;-82
2021/07/08 07:35:16;;;;;;;12.75;2.80;;;17.60;99.90;;;;;;5006748;28;20436;-83
2021/07/08 07:37:42;;;;;;;8.07;3.13;;;17.60;99.90;;;;;;5010124;28;20912;-83
2021/07/08 07:40:09;;;;;;;7.97;2.83;;;17.60;99.90;;;;;;5011596;28;20046;-82
2021/07/08 07:42:35;;;;;;;6.13;2.50;;;17.90;99.90;;;;;;5011395;28;20484;-83
2021/07/08 07:45:05;;;;;;;5.43;2.33;;;18.40;99.90;;;;;;5007208;28;20050;-86
2021/07/08 07:47:31;;;;;;;7.88;2.53;;;19.10;99.90;;;;;;5017334;28;20038;-84
2021/07/08 07:49:57;;;;;;;5.63;2.28;;;19.70;99.90;;;;;;5011654;28;20397;-86
2021/07/08 07:52:23;;;;;;;7.40;2.35;;;19.80;99.90;;;;;;5010530;28;20034;-86
2021/07/08 07:54:49;;;;;;;6.78;2.38;;;19.60;99.90;;;;;;4996223;28;20121;-85
2021/07/08 07:57:14;;;;;;;8.32;2.20;;;19.50;99.90;;;;;;5009981;28;20022;-85
2021/07/08 07:59:40;;;;;;;7.40;2.10;;;19.20;99.90;;;;;;5010871;28;20025;-86
2021/07/08 08:02:11;;;;;;;4.18;1.75;;;19.20;99.90;;;;;;5002038;28;20030;-86
2021/07/08 08:04:56;;;;;;;7.38;2.15;;;19.30;99.90;;;;;;5009353;28;20489;-85
2021/07/08 08:10:08;;;;;;;7.18;2.53;;;20.00;99.90;;;;;;5000102;28;21053;-87
2021/07/08 08:12:33;;;;;;;7.22;2.97;;;21.00;99.90;;;;;;5005030;28;20037;-85
2021/07/08 08:15:03;;;;;;;4.70;2.40;;;20.90;99.90;;;;;;5002695;28;20487;-82
2021/07/08 08:17:29;;;;;;;7.85;2.60;;;20.30;99.90;;;;;;5007774;28;20052;-82
2021/07/08 08:19:54;;;;;;;5.20;2.50;;;20.00;99.90;;;;;;5009755;28;20436;-82
2021/07/08 08:22:20;;;;;;;7.15;2.70;;;19.80;99.90;;;;;;5008003;28;20025;-82
2021/07/08 08:24:46;;;;;;;5.53;2.25;;;19.80;99.90;;;;;;5010784;28;20030;-82
2021/07/08 08:27:11;;;;;;;9.60;2.50;;;19.70;99.90;;;;;;5009714;28;20033;-81
2021/07/08 08:29:38;;;;;;;10.52;2.22;;;19.60;99.90;;;;;;5009009;28;20109;-82
2021/07/08 08:32:04;;;;;;;8.52;2.50;;;19.90;99.90;;;;;;5008823;28;20033;-82
2021/07/08 08:34:29;;;;;;;5.15;2.13;;;19.90;99.90;;;;;;5008113;28;20030;-82
2021/07/08 08:36:55;;;;;;;4.78;2.00;;;20.20;99.90;;;;;;5001151;28;20030;-82
2021/07/08 08:39:21;;;;;;;5.25;2.15;;;20.10;99.90;;;;;;5012311;28;20026;-82
2021/07/08 08:41:46;;;;;;;8.18;2.63;;;19.40;99.90;;;;;;5018250;28;20125;-83
2021/07/08 08:44:12;;;;;;;6.10;2.30;;;19.00;99.90;;;;;;5022179;28;20535;-82
2021/07/08 08:46:38;;;;;;;9.10;2.42;;;18.80;99.90;;;;;;5037927;28;20033;-82
2021/07/08 08:49:05;;;;;;;16.13;2.35;;;18.60;99.90;;;;;;5025360;28;20033;-82
2021/07/08 08:51:31;;;;;;;3.83;1.80;;;18.60;99.90;;;;;;5042179;28;20025;-84
2021/07/08 08:53:58;;;;;;;4.22;1.58;;;18.70;99.90;;;;;;5032089;28;20028;-81
2021/07/08 08:56:24;;;;;;;4.70;1.75;;;19.00;99.90;;;;;;5034827;28;20021;-83
2021/07/08 08:58:50;;;;;;;6.75;2.10;;;19.20;99.90;;;;;;5021411;28;20040;-82
2021/07/08 09:01:17;;;;;;;5.72;1.50;;;20.30;99.90;;;;;;5039617;28;20021;-83
2021/07/08 09:03:44;;;;;;;4.07;1.45;;;21.10;99.90;;;;;;5037607;28;20029;-82
2021/07/08 09:06:12;;;;;;;5.38;1.80;;;22.70;99.90;;;;;;5021619;28;20049;-83
2021/07/08 09:08:47;;;;;;;5.05;1.80;;;24.30;99.70;;;;;;5013549;28;20678;-82
2021/07/08 09:11:15;;;;;;;6.63;1.55;;;23.80;98.10;;;;;;5010291;28;20045;-82
2021/07/08 09:13:46;;;;;;;4.78;1.70;;;21.50;99.90;;;;;;5024791;28;20542;-84
2021/07/08 09:16:14;;;;;;;2.72;1.48;;;21.00;99.90;;;;;;5028789;28;20017;-84
2021/07/08 09:18:41;;;;;;;3.50;1.38;;;23.20;99.20;;;;;;5030516;28;20038;-84
2021/07/08 09:21:16;;;;;;;4.55;1.70;;;21.40;99.90;;;;;;5030469;28;20025;-81
2021/07/08 09:24:03;;;;;;;3.78;1.50;;;23.00;99.90;;;;;;5013059;28;20030;-82
2021/07/08 09:26:28;;;;;;;5.30;2.05;;;24.70;96.70;;;;;;5030180;28;20040;-88
2021/07/08 09:29:03;;;;;;;3.38;1.40;;;26.40;94.90;;;;;;5030505;28;20026;-83
2021/07/08 09:31:29;;;;;;;5.05;1.30;;;25.60;94.70;;;;;;5030883;28;20484;-84
2021/07/08 09:33:54;;;;;;;2.97;1.30;;;25.90;94.90;;;;;;5030153;28;20031;-83
2021/07/08 09:36:20;;;;;;;2.78;1.40;;;24.50;95.50;;;;;;5012086;28;20558;-85
2021/07/08 09:38:48;;;;;;;2.55;1.20;;;23.30;98.30;;;;;;5030900;28;20025;-87
2021/07/08 09:41:17;;;;;;;7.82;1.60;;;21.80;99.40;;;;;;5009400;28;20018;-83
2021/07/08 09:43:45;;;;;;;6.93;1.40;;;21.00;99.90;;;;;;5017368;28;20060;-84
2021/07/08 09:46:12;;;;;;;5.43;1.20;;;20.40;99.90;;;;;;5030752;28;20071;-83
2021/07/08 09:48:39;;;;;;;6.13;1.50;;;20.20;99.90;;;;;;5027803;28;20405;-82
2021/07/08 09:51:06;;;;;;;5.22;1.40;;;20.30;99.90;;;;;;5027140;28;20039;-82
2021/07/08 09:53:51;;;;;;;6.25;2.25;;;20.40;99.90;;;;;;5029563;28;20055;-83
2021/07/08 09:58:56;;;;;;;3.28;1.60;;;20.50;99.90;;;;;;5033910;28;20034;-83
2021/07/08 10:01:23;;;;;;;5.88;1.75;;;20.50;99.90;;;;;;5022822;28;20026;-82
2021/07/08 10:03:49;;;;;;;7.47;1.50;;;20.50;99.90;;;;;;5032313;28;20083;-82
2021/07/08 10:06:16;;;;;;;5.72;1.40;;;20.70;99.90;;;;;;5032430;28;20057;-85
2021/07/08 10:08:43;;;;;;;6.60;1.30;;;20.80;99.90;;;;;;5015536;28;20025;-83
2021/07/08 10:11:13;;;;;;;6.90;1.50;;;20.90;99.90;;;;;;5031606;28;20032;-81
2021/07/08 10:13:39;;;;;;;1.83;1.30;;;21.10;99.50;;;;;;5010126;28;20061;-84
2021/07/08 10:16:06;;;;;;;3.80;1.55;;;21.90;99.90;;;;;;5002197;28;20022;-83
2021/07/08 10:18:36;;;;;;;6.35;1.83;;;22.20;99.60;;;;;;5032016;28;20083;-82
2021/07/08 10:21:02;;;;;;;3.08;1.30;;;22.50;98.80;;;;;;5028629;28;20029;-81
2021/07/08 10:23:32;;;;;;;4.82;1.50;;;22.10;99.00;;;;;;5015179;28;20740;-83
2021/07/08 10:25:59;;;;;;;6.70;2.00;;;21.80;98.30;;;;;;5030122;28;20032;-82
2021/07/08 10:28:26;;;;;;;6.60;1.60;;;21.90;99.60;;;;;;5020608;28;20095;-83
2021/07/08 10:30:53;;;;;;;3.92;1.60;;;21.70;99.60;;;;;;5031515;28;20035;-83
2021/07/08 10:33:19;;;;;;;4.03;1.42;;;21.70;98.60;;;;;;5029717;28;20053;-90
2021/07/08 10:35:48;;;;;;;4.88;1.70;;;21.80;98.70;;;;;;5030433;28;20026;-89
2021/07/08 10:38:36;;;;;;;4.95;1.58;;;22.50;96.80;;;;;;5029317;28;20060;-82
2021/07/08 10:41:22;;;;;;;4.82;1.98;;;22.70;98.00;;;;;;5014893;28;20070;-80
2021/07/08 10:43:48;;;;;;;4.10;1.55;;;22.20;96.50;;;;;;5004631;28;20504;-80
2021/07/08 10:46:16;;;;;;;4.10;1.60;;;21.60;97.90;;;;;;5025335;28;20037;-79
2021/07/08 10:48:47;;;;;;;6.72;2.45;;;22.00;98.20;;;;;;5032711;28;20064;-79
2021/07/08 10:51:28;;;;;;;6.20;2.28;;;21.70;98.60;;;;;;5030714;28;20144;-80
2021/07/08 10:53:54;;;;;;;7.22;3.10;;;21.80;99.00;;;;;;5027867;28;20037;-81
2021/07/08 10:56:31;;;;;;;4.22;2.22;;;21.90;98.30;;;;;;5032175;28;20029;-80
2021/07/08 10:58:57;;;;;;;8.02;2.92;;;21.80;99.10;;;;;;5033104;28;20096;-79
2021/07/08 11:01:23;;;;;;;4.60;2.15;;;22.10;99.00;;;;;;5026518;28;20025;-79
2021/07/08 11:03:53;;;;;;;4.68;2.30;;;22.40;98.30;;;;;;5003659;28;20020;-79
2021/07/08 11:06:23;;;;;;;5.90;2.78;;;23.00;97.80;;;;;;5027881;28;20026;-79
2021/07/08 11:08:58;;;;;;;4.85;2.50;;;23.40;97.70;;;;;;5010906;28;20045;-80
2021/07/08 11:11:24;;;;;;;4.13;2.08;;;23.80;95.60;;;;;;5011977;28;20566;-79
2021/07/08 11:13:54;;;;;;;4.15;2.42;;;24.90;94.00;;;;;;5033344;28;20096;-81
2021/07/08 11:16:45;;;;;;;5.22;2.30;;;24.70;94.10;;;;;;5036487;28;20451;-79
2021/07/08 11:19:13;;;;;;;3.03;2.08;;;24.80;94.10;;;;;;5033617;28;20503;-81
2021/07/08 11:21:58;;;;;;;8.55;3.10;;;24.90;92.70;;;;;;5013801;28;20552;-79
2021/07/08 11:24:39;;;;;;;5.43;2.47;;;24.80;94.40;;;;;;5015777;28;20027;-79
2021/07/08 11:27:07;;;;;;;3.70;2.55;;;25.30;94.70;;;;;;5033140;28;20485;-78
2021/07/08 11:29:35;;;;;;;10.48;3.20;;;25.50;94.30;;;;;;5016544;28;20029;-80
2021/07/08 11:32:22;;;;;;;7.88;3.83;;;26.00;94.00;;;;;;5025518;28;20021;-78
2021/07/08 11:35:00;;;;;;;7.10;2.78;;;25.30;93.70;;;;;;5016659;28;20072;-80
2021/07/08 11:37:31;;;;;;;6.10;3.05;;;24.70;94.40;;;;;;5029966;28;20030;-79
2021/07/08 11:39:59;;;;;;;9.23;3.10;;;24.50;95.70;;;;;;5027226;28;20021;-81
2021/07/08 11:42:30;;;;;;;8.38;3.20;;;24.80;94.30;;;;;;5026380;28;20059;-79
2021/07/08 11:44:56;;;;;;;6.82;2.83;;;24.70;96.50;;;;;;5007033;28;20056;-79
2021/07/08 11:47:22;;;;;;;4.68;2.63;;;24.10;94.30;;;;;;5002475;28;20038;-80
2021/07/08 11:49:49;;;;;;;7.05;3.00;;;24.30;94.10;;;;;;5008700;28;20404;-79
2021/07/08 11:52:20;;;;;;;7.55;2.80;;;24.60;94.80;;;;;;5008905;28;20045;-83
2021/07/08 11:54:54;;;;;;;6.97;2.70;;;25.00;94.20;;;;;;5008403;28;20076;-84
2021/07/08 11:57:20;;;;;;;6.45;2.45;;;24.70;94.10;;;;;;5001790;28;20034;-79
2021/07/08 11:59:48;;;;;;;2.90;2.47;;;24.80;93.90;;;;;;5002669;28;20052;-86
2021/07/08 12:02:31;;;;;;;4.50;2.50;;;24.70;94.30;;;;;;5008295;28;20133;-79
2021/07/08 12:05:14;;;;;;;5.13;2.33;;;25.00;92.90;;;;;;5009340;28;20052;-86
2021/07/08 12:08:01;;;;;;;4.50;2.25;;;25.10;93.60;;;;;;5006589;28;20029;-84
2021/07/08 12:10:34;;;;;;;5.90;2.22;;;24.60;93.70;;;;;;5007326;28;20025;-85
2021/07/08 12:13:02;;;;;;;7.78;2.65;;;24.50;94.20;;;;;;5004613;28;20037;-82
2021/07/08 12:15:28;;;;;;;2.92;2.10;;;24.20;94.40;;;;;;5010148;28;20057;-87
2021/07/08 12:18:00;;;;;;;9.32;2.85;;;24.40;93.00;;;;;;5009459;28;20033;-81
2021/07/08 12:20:28;;;;;;;6.30;2.33;;;24.40;94.60;;;;;;5008053;28;20087;-80
2021/07/08 12:23:03;;;;;;;8.38;2.40;;;24.50;94.30;;;;;;5008893;28;20025;-83
2021/07/08 12:25:31;;;;;;;5.07;2.63;;;24.60;94.60;;;;;;5008980;28;20041;-82
2021/07/08 12:27:57;;;;;;;7.60;2.80;;;24.00;94.70;;;;;;5007897;28;20038;-79
2021/07/08 12:30:30;;;;;;;5.38;2.60;;;24.40;95.90;;;;;;5009033;28;20049;-84
2021/07/08 12:33:05;;;;;;;6.47;2.95;;;23.80;95.50;;;;;;5008212;28;20026;-81
2021/07/08 12:35:41;;;;;;;5.35;2.85;;;23.40;96.60;;;;;;4996623;28;20037;-81
2021/07/08 12:38:08;;;;;;;3.70;2.40;;;23.70;95.70;;;;;;5008314;28;20036;-87
2021/07/08 12:40:34;;;;;;;5.07;2.72;;;23.40;95.80;;;;;;5007968;28;20030;-78
2021/07/08 12:43:06;;;;;;;8.63;2.72;;;23.50;96.10;;;;;;4968854;28;1149663;-83
2021/07/08 12:45:33;;;;;;;5.90;2.55;;;23.40;95.80;;;;;;5025362;28;20030;-80
2021/07/08 12:48:00;;;;;;;4.07;2.90;;;24.00;95.60;;;;;;5024584;28;20776;-80
2021/07/08 12:50:28;;;;;;;8.25;2.72;;;24.30;95.90;;;;;;5026655;28;20071;-81